sensor_id;sensor_type;location;lat;lon;timestamp;temperature;humidity
52125;DHT22;38119;52.710;6.398;2023-06-24T00:01:28;18.30;99.90
52125;DHT22;38119;52.710;6.398;2023-06-24T00:03:54;18.30;99.90
52125;DHT22;38119;52.710;6.398;2023-06-24T00:06:22;18.20;99.90
52125;DHT22;38119;52.710;6.398;2023-06-24T00:08:52;18.20;99.90
52125;DHT22;38119;52.710;6.398;2023-06-24T00:11:18;18.20;99.90
52125;DHT22;38119;52.710;6.398;2023-06-24T00:13:44;18.20;99.90
52125;DHT22;38119;52.710;6.398;2023-06-24T00:16:10;18.10;99.90
52125;DHT22;38119;52.710;6.398;2023-06-24T00:18:37;18.10;99.90
52125;DHT22;38119;52.710;6.398;2023-06-24T00:21:06;18.00;99.90
52125;DHT22;38119;52.710;6.398;2023-06-24T00:23:32;18.00;99.90
52125;DHT22;38119;52.710;6.398;2023-06-24T00:26:00;18.10;99.90
52125;DHT22;38119;52.710;6.398;2023-06-24T00:28:29;18.00;99.90
52125;DHT22;38119;52.710;6.398;2023-06-24T00:30:54;18.00;99.90
52125;DHT22;38119;52.710;6.398;2023-06-24T00:33:20;18.00;99.90
52125;DHT22;38119;52.710;6.398;2023-06-24T00:35:49;18.00;99.90
52125;DHT22;38119;52.710;6.398;2023-06-24T00:38:15;18.00;99.90
52125;DHT22;38119;52.710;6.398;2023-06-24T00:40:41;17.90;99.90
52125;DHT22;38119;52.710;6.398;2023-06-24T00:43:07;17.90;99.90
52125;DHT22;38119;52.710;6.398;2023-06-24T00:45:33;17.90;99.90
52125;DHT22;38119;52.710;6.398;2023-06-24T00:47:59;17.90;99.90
52125;DHT22;38119;52.710;6.398;2023-06-24T00:50:25;17.80;99.90
52125;DHT22;38119;52.710;6.398;2023-06-24T00:52:51;17.90;99.90
52125;DHT22;38119;52.710;6.398;2023-06-24T00:55:17;17.80;99.90
52125;DHT22;38119;52.710;6.398;2023-06-24T00:57:47;17.80;99.90
52125;DHT22;38119;52.710;6.398;2023-06-24T01:00:18;17.70;99.90
52125;DHT22;38119;52.710;6.398;2023-06-24T01:02:47;17.70;99.90
52125;DHT22;38119;52.710;6.398;2023-06-24T01:05:13;17.70;99.90
52125;DHT22;38119;52.710;6.398;2023-06-24T01:07:40;17.70;99.90
52125;DHT22;38119;52.710;6.398;2023-06-24T01:10:08;17.60;99.90
52125;DHT22;38119;52.710;6.398;2023-06-24T01:12:39;17.60;99.90
52125;DHT22;38119;52.710;6.398;2023-06-24T01:15:06;17.60;99.90
52125;DHT22;38119;52.710;6.398;2023-06-24T01:31:47;17.40;99.90
52125;DHT22;38119;52.710;6.398;2023-06-24T01:34:43;17.40;99.90
52125;DHT22;38119;52.710;6.398;2023-06-24T01:40:12;17.40;99.90
52125;DHT22;38119;52.710;6.398;2023-06-24T01:42:43;17.30;99.90
52125;DHT22;38119;52.710;6.398;2023-06-24T01:45:13;17.40;99.90
52125;DHT22;38119;52.710;6.398;2023-06-24T01:47:42;17.30;99.90
52125;DHT22;38119;52.710;6.398;2023-06-24T01:50:11;17.30;99.90
52125;DHT22;38119;52.710;6.398;2023-06-24T01:52:39;17.20;99.90
52125;DHT22;38119;52.710;6.398;2023-06-24T01:55:09;17.20;99.90
52125;DHT22;38119;52.710;6.398;2023-06-24T01:57:36;17.10;99.90
52125;DHT22;38119;52.710;6.398;2023-06-24T02:00:03;17.10;99.90
52125;DHT22;38119;52.710;6.398;2023-06-24T02:02:32;17.10;99.90
52125;DHT22;38119;52.710;6.398;2023-06-24T02:04:59;17.00;99.90
52125;DHT22;38119;52.710;6.398;2023-06-24T02:07:28;17.00;99.90
52125;DHT22;38119;52.710;6.398;2023-06-24T02:09:55;16.90;99.90
52125;DHT22;38119;52.710;6.398;2023-06-24T02:12:23;16.90;99.90
52125;DHT22;38119;52.710;6.398;2023-06-24T02:14:50;16.90;99.90
52125;DHT22;38119;52.710;6.398;2023-06-24T02:17:17;16.90;99.90
52125;DHT22;38119;52.710;6.398;2023-06-24T02:19:44;16.90;99.90
52125;DHT22;38119;52.710;6.398;2023-06-24T02:22:12;16.90;99.90
52125;DHT22;38119;52.710;6.398;2023-06-24T02:24:38;16.90;99.90
52125;DHT22;38119;52.710;6.398;2023-06-24T02:27:07;16.80;99.90
52125;DHT22;38119;52.710;6.398;2023-06-24T02:29:34;16.80;99.90
52125;DHT22;38119;52.710;6.398;2023-06-24T02:32:01;16.80;99.90
52125;DHT22;38119;52.710;6.398;2023-06-24T02:34:27;16.80;99.90
52125;DHT22;38119;52.710;6.398;2023-06-24T02:36:53;16.80;99.90
52125;DHT22;38119;52.710;6.398;2023-06-24T02:39:19;16.80;99.90
52125;DHT22;38119;52.710;6.398;2023-06-24T02:41:45;16.70;99.90
52125;DHT22;38119;52.710;6.398;2023-06-24T02:44:13;16.70;99.90
52125;DHT22;38119;52.710;6.398;2023-06-24T02:46:40;16.70;99.90
52125;DHT22;38119;52.710;6.398;2023-06-24T02:49:07;16.70;99.90
52125;DHT22;38119;52.710;6.398;2023-06-24T02:51:34;16.70;99.90
52125;DHT22;38119;52.710;6.398;2023-06-24T02:54:01;16.60;99.90
52125;DHT22;38119;52.710;6.398;2023-06-24T02:56:27;16.60;99.90
52125;DHT22;38119;52.710;6.398;2023-06-24T02:58:53;16.60;99.90
52125;DHT22;38119;52.710;6.398;2023-06-24T03:01:20;16.60;99.90
52125;DHT22;38119;52.710;6.398;2023-06-24T03:03:53;16.50;99.90
52125;DHT22;38119;52.710;6.398;2023-06-24T03:06:19;16.50;99.90
52125;DHT22;38119;52.710;6.398;2023-06-24T03:08:45;16.40;99.90
52125;DHT22;38119;52.710;6.398;2023-06-24T03:11:14;16.50;99.90
52125;DHT22;38119;52.710;6.398;2023-06-24T03:13:41;16.50;99.90
52125;DHT22;38119;52.710;6.398;2023-06-24T03:16:07;16.40;99.90
52125;DHT22;38119;52.710;6.398;2023-06-24T03:18:39;16.40;99.90
52125;DHT22;38119;52.710;6.398;2023-06-24T03:21:04;16.40;99.90
52125;DHT22;38119;52.710;6.398;2023-06-24T03:23:31;16.40;99.90
52125;DHT22;38119;52.710;6.398;2023-06-24T03:25:57;16.40;99.90
52125;DHT22;38119;52.710;6.398;2023-06-24T03:28:22;16.40;99.90
52125;DHT22;38119;52.710;6.398;2023-06-24T03:30:48;16.40;99.90
52125;DHT22;38119;52.710;6.398;2023-06-24T03:33:14;16.40;99.90
52125;DHT22;38119;52.710;6.398;2023-06-24T03:35:45;16.60;99.90
52125;DHT22;38119;52.710;6.398;2023-06-24T03:38:11;16.40;99.90
52125;DHT22;38119;52.710;6.398;2023-06-24T03:40:37;16.40;99.90
52125;DHT22;38119;52.710;6.398;2023-06-24T03:43:03;16.40;99.90
52125;DHT22;38119;52.710;6.398;2023-06-24T03:45:28;16.40;99.90
52125;DHT22;38119;52.710;6.398;2023-06-24T03:47:54;16.40;99.90
52125;DHT22;38119;52.710;6.398;2023-06-24T03:50:19;16.40;99.90
52125;DHT22;38119;52.710;6.398;2023-06-24T03:52:45;16.40;99.90
52125;DHT22;38119;52.710;6.398;2023-06-24T03:55:11;16.40;99.90
52125;DHT22;38119;52.710;6.398;2023-06-24T03:57:37;16.40;99.90
52125;DHT22;38119;52.710;6.398;2023-06-24T04:00:03;16.40;99.90
52125;DHT22;38119;52.710;6.398;2023-06-24T04:02:41;16.50;99.90
52125;DHT22;38119;52.710;6.398;2023-06-24T04:05:08;16.50;99.90
52125;DHT22;38119;52.710;6.398;2023-06-24T04:07:33;16.50;99.90
52125;DHT22;38119;52.710;6.398;2023-06-24T04:10:02;16.60;99.90
52125;DHT22;38119;52.710;6.398;2023-06-24T04:12:29;16.60;99.90
52125;DHT22;38119;52.710;6.398;2023-06-24T04:14:55;16.70;99.90
52125;DHT22;38119;52.710;6.398;2023-06-24T04:17:20;16.70;99.90
52125;DHT22;38119;52.710;6.398;2023-06-24T04:19:46;16.80;99.90
52125;DHT22;38119;52.710;6.398;2023-06-24T04:22:12;16.90;99.90
52125;DHT22;38119;52.710;6.398;2023-06-24T04:24:37;16.90;99.90
52125;DHT22;38119;52.710;6.398;2023-06-24T04:27:03;16.90;99.90
52125;DHT22;38119;52.710;6.398;2023-06-24T04:29:29;16.90;99.90
52125;DHT22;38119;52.710;6.398;2023-06-24T04:31:55;16.90;99.90
52125;DHT22;38119;52.710;6.398;2023-06-24T04:34:20;17.00;99.90
52125;DHT22;38119;52.710;6.398;2023-06-24T04:36:46;17.00;99.90
52125;DHT22;38119;52.710;6.398;2023-06-24T04:39:11;17.00;99.90
52125;DHT22;38119;52.710;6.398;2023-06-24T04:41:37;17.00;99.90
52125;DHT22;38119;52.710;6.398;2023-06-24T04:44:03;17.00;99.90
52125;DHT22;38119;52.710;6.398;2023-06-24T04:46:29;17.00;99.90
52125;DHT22;38119;52.710;6.398;2023-06-24T04:48:54;17.00;99.90
52125;DHT22;38119;52.710;6.398;2023-06-24T04:51:20;17.10;99.90
52125;DHT22;38119;52.710;6.398;2023-06-24T04:53:46;17.10;99.90
52125;DHT22;38119;52.710;6.398;2023-06-24T04:56:11;17.10;99.90
52125;DHT22;38119;52.710;6.398;2023-06-24T04:58:37;17.20;99.90
52125;DHT22;38119;52.710;6.398;2023-06-24T05:01:02;17.20;99.90
52125;DHT22;38119;52.710;6.398;2023-06-24T05:03:28;17.20;99.90
52125;DHT22;38119;52.710;6.398;2023-06-24T05:05:54;17.30;99.90
52125;DHT22;38119;52.710;6.398;2023-06-24T05:08:20;17.30;99.90
52125;DHT22;38119;52.710;6.398;2023-06-24T05:10:45;17.30;99.90
52125;DHT22;38119;52.710;6.398;2023-06-24T05:13:11;17.40;99.90
52125;DHT22;38119;52.710;6.398;2023-06-24T05:15:36;17.40;99.90
52125;DHT22;38119;52.710;6.398;2023-06-24T05:18:02;17.50;99.90
52125;DHT22;38119;52.710;6.398;2023-06-24T05:20:28;17.50;99.90
52125;DHT22;38119;52.710;6.398;2023-06-24T05:22:54;17.50;99.90
52125;DHT22;38119;52.710;6.398;2023-06-24T05:25:20;17.60;99.90
52125;DHT22;38119;52.710;6.398;2023-06-24T05:27:45;17.60;99.90
52125;DHT22;38119;52.710;6.398;2023-06-24T05:30:11;17.70;99.90
52125;DHT22;38119;52.710;6.398;2023-06-24T05:32:38;17.70;99.90
52125;DHT22;38119;52.710;6.398;2023-06-24T05:35:04;17.70;99.90
52125;DHT22;38119;52.710;6.398;2023-06-24T05:37:30;17.80;99.90
52125;DHT22;38119;52.710;6.398;2023-06-24T05:39:55;17.80;99.90
52125;DHT22;38119;52.710;6.398;2023-06-24T05:42:22;17.90;99.90
52125;DHT22;38119;52.710;6.398;2023-06-24T05:44:48;18.00;99.90
52125;DHT22;38119;52.710;6.398;2023-06-24T05:47:14;18.00;99.90
52125;DHT22;38119;52.710;6.398;2023-06-24T05:49:40;18.10;99.90
52125;DHT22;38119;52.710;6.398;2023-06-24T05:52:06;18.10;99.90
52125;DHT22;38119;52.710;6.398;2023-06-24T05:54:31;18.10;99.90
52125;DHT22;38119;52.710;6.398;2023-06-24T05:56:57;18.20;99.90
52125;DHT22;38119;52.710;6.398;2023-06-24T05:59:22;18.20;99.90
52125;DHT22;38119;52.710;6.398;2023-06-24T06:01:48;18.20;99.90
52125;DHT22;38119;52.710;6.398;2023-06-24T06:04:14;18.30;99.90
52125;DHT22;38119;52.710;6.398;2023-06-24T06:06:39;18.40;99.90
52125;DHT22;38119;52.710;6.398;2023-06-24T06:09:05;18.50;99.90
52125;DHT22;38119;52.710;6.398;2023-06-24T06:11:31;18.60;99.90
52125;DHT22;38119;52.710;6.398;2023-06-24T06:13:57;18.60;99.90
52125;DHT22;38119;52.710;6.398;2023-06-24T06:16:23;18.70;99.90
52125;DHT22;38119;52.710;6.398;2023-06-24T06:18:49;18.80;99.90
52125;DHT22;38119;52.710;6.398;2023-06-24T06:21:14;18.90;99.90
52125;DHT22;38119;52.710;6.398;2023-06-24T06:23:40;18.90;99.90
52125;DHT22;38119;52.710;6.398;2023-06-24T06:26:06;19.00;99.90
52125;DHT22;38119;52.710;6.398;2023-06-24T06:28:31;19.00;99.90
52125;DHT22;38119;52.710;6.398;2023-06-24T06:30:57;19.20;99.90
52125;DHT22;38119;52.710;6.398;2023-06-24T06:33:22;19.10;99.90
52125;DHT22;38119;52.710;6.398;2023-06-24T06:35:48;19.10;99.90
52125;DHT22;38119;52.710;6.398;2023-06-24T06:38:14;19.20;99.90
52125;DHT22;38119;52.710;6.398;2023-06-24T06:40:39;19.30;99.90
52125;DHT22;38119;52.710;6.398;2023-06-24T06:43:06;19.30;99.90
52125;DHT22;38119;52.710;6.398;2023-06-24T06:45:31;19.40;99.90
52125;DHT22;38119;52.710;6.398;2023-06-24T06:47:57;19.50;99.90
52125;DHT22;38119;52.710;6.398;2023-06-24T06:50:23;19.60;99.90
52125;DHT22;38119;52.710;6.398;2023-06-24T06:52:48;19.60;99.90
52125;DHT22;38119;52.710;6.398;2023-06-24T06:55:14;19.70;99.90
52125;DHT22;38119;52.710;6.398;2023-06-24T06:57:39;19.80;99.90
52125;DHT22;38119;52.710;6.398;2023-06-24T07:00:06;19.80;99.90
52125;DHT22;38119;52.710;6.398;2023-06-24T07:02:31;19.90;99.90
52125;DHT22;38119;52.710;6.398;2023-06-24T07:04:57;20.00;99.90
52125;DHT22;38119;52.710;6.398;2023-06-24T07:07:24;20.10;99.90
52125;DHT22;38119;52.710;6.398;2023-06-24T07:09:50;20.20;99.90
52125;DHT22;38119;52.710;6.398;2023-06-24T07:12:15;20.30;99.90
52125;DHT22;38119;52.710;6.398;2023-06-24T07:14:41;20.30;99.90
52125;DHT22;38119;52.710;6.398;2023-06-24T07:17:07;20.50;99.90
52125;DHT22;38119;52.710;6.398;2023-06-24T07:19:32;20.60;99.90
52125;DHT22;38119;52.710;6.398;2023-06-24T07:21:58;20.70;99.90
52125;DHT22;38119;52.710;6.398;2023-06-24T07:24:24;20.90;99.90
52125;DHT22;38119;52.710;6.398;2023-06-24T07:26:49;21.00;99.90
52125;DHT22;38119;52.710;6.398;2023-06-24T07:29:15;21.10;99.90
52125;DHT22;38119;52.710;6.398;2023-06-24T07:31:40;21.10;99.90
52125;DHT22;38119;52.710;6.398;2023-06-24T07:34:06;21.10;99.90
52125;DHT22;38119;52.710;6.398;2023-06-24T07:36:32;21.20;99.90
52125;DHT22;38119;52.710;6.398;2023-06-24T07:38:57;21.20;99.90
52125;DHT22;38119;52.710;6.398;2023-06-24T07:41:23;21.30;99.90
52125;DHT22;38119;52.710;6.398;2023-06-24T07:43:48;21.40;99.90
52125;DHT22;38119;52.710;6.398;2023-06-24T07:46:15;21.50;99.90
52125;DHT22;38119;52.710;6.398;2023-06-24T07:48:41;21.60;99.90
52125;DHT22;38119;52.710;6.398;2023-06-24T07:51:06;21.70;99.90
52125;DHT22;38119;52.710;6.398;2023-06-24T07:53:32;21.90;99.90
52125;DHT22;38119;52.710;6.398;2023-06-24T07:55:59;22.00;99.90
52125;DHT22;38119;52.710;6.398;2023-06-24T07:58:24;22.20;99.90
52125;DHT22;38119;52.710;6.398;2023-06-24T08:00:50;22.40;99.90
52125;DHT22;38119;52.710;6.398;2023-06-24T08:03:16;22.50;99.90
52125;DHT22;38119;52.710;6.398;2023-06-24T08:05:42;22.50;99.90
52125;DHT22;38119;52.710;6.398;2023-06-24T08:08:08;22.50;99.90
52125;DHT22;38119;52.710;6.398;2023-06-24T08:10:33;22.60;99.80
52125;DHT22;38119;52.710;6.398;2023-06-24T08:12:59;22.60;99.30
52125;DHT22;38119;52.710;6.398;2023-06-24T08:15:25;22.70;99.00
52125;DHT22;38119;52.710;6.398;2023-06-24T08:17:54;22.80;99.50
52125;DHT22;38119;52.710;6.398;2023-06-24T08:20:23;22.90;99.30
52125;DHT22;38119;52.710;6.398;2023-06-24T08:22:49;23.00;98.90
52125;DHT22;38119;52.710;6.398;2023-06-24T08:25:15;23.20;98.20
52125;DHT22;38119;52.710;6.398;2023-06-24T08:27:41;23.30;97.60
52125;DHT22;38119;52.710;6.398;2023-06-24T08:30:09;23.40;98.10
52125;DHT22;38119;52.710;6.398;2023-06-24T08:32:34;23.60;97.10
52125;DHT22;38119;52.710;6.398;2023-06-24T08:35:00;23.80;97.60
52125;DHT22;38119;52.710;6.398;2023-06-24T08:37:26;24.00;97.50
52125;DHT22;38119;52.710;6.398;2023-06-24T08:39:51;24.10;95.80
52125;DHT22;38119;52.710;6.398;2023-06-24T08:42:17;24.00;95.10
52125;DHT22;38119;52.710;6.398;2023-06-24T08:44:42;24.00;94.70
52125;DHT22;38119;52.710;6.398;2023-06-24T08:47:08;23.80;94.50
52125;DHT22;38119;52.710;6.398;2023-06-24T08:49:40;23.80;94.10
52125;DHT22;38119;52.710;6.398;2023-06-24T08:52:13;23.70;94.60
52125;DHT22;38119;52.710;6.398;2023-06-24T08:54:44;23.80;93.70
52125;DHT22;38119;52.710;6.398;2023-06-24T08:57:11;24.00;92.80
52125;DHT22;38119;52.710;6.398;2023-06-24T08:59:40;24.30;91.40
52125;DHT22;38119;52.710;6.398;2023-06-24T09:02:06;24.60;91.40
52125;DHT22;38119;52.710;6.398;2023-06-24T09:04:32;24.80;90.70
52125;DHT22;38119;52.710;6.398;2023-06-24T09:06:58;25.00;87.80
52125;DHT22;38119;52.710;6.398;2023-06-24T09:09:24;25.30;85.30
52125;DHT22;38119;52.710;6.398;2023-06-24T09:12:02;25.50;83.50
52125;DHT22;38119;52.710;6.398;2023-06-24T09:14:29;25.60;82.70
52125;DHT22;38119;52.710;6.398;2023-06-24T09:16:59;25.80;82.30
52125;DHT22;38119;52.710;6.398;2023-06-24T09:19:29;26.00;82.40
52125;DHT22;38119;52.710;6.398;2023-06-24T09:21:56;26.10;80.80
52125;DHT22;38119;52.710;6.398;2023-06-24T09:25:00;26.20;78.90
52125;DHT22;38119;52.710;6.398;2023-06-24T09:27:31;26.40;77.20
52125;DHT22;38119;52.710;6.398;2023-06-24T09:30:25;26.60;78.20
52125;DHT22;38119;52.710;6.398;2023-06-24T09:32:54;26.80;75.10
52125;DHT22;38119;52.710;6.398;2023-06-24T09:35:22;26.90;75.00
52125;DHT22;38119;52.710;6.398;2023-06-24T09:40:24;27.30;74.10
52125;DHT22;38119;52.710;6.398;2023-06-24T09:42:54;27.40;74.30
52125;DHT22;38119;52.710;6.398;2023-06-24T09:45:27;27.70;72.20
52125;DHT22;38119;52.710;6.398;2023-06-24T09:47:54;28.00;71.10
52125;DHT22;38119;52.710;6.398;2023-06-24T09:50:20;28.20;70.70
52125;DHT22;38119;52.710;6.398;2023-06-24T09:52:50;28.40;69.80
52125;DHT22;38119;52.710;6.398;2023-06-24T09:55:17;28.50;68.30
52125;DHT22;38119;52.710;6.398;2023-06-24T09:57:45;28.50;68.80
52125;DHT22;38119;52.710;6.398;2023-06-24T10:00:14;28.70;69.20
52125;DHT22;38119;52.710;6.398;2023-06-24T10:02:40;28.70;68.30
52125;DHT22;38119;52.710;6.398;2023-06-24T10:05:06;28.80;68.10
52125;DHT22;38119;52.710;6.398;2023-06-24T10:07:33;28.80;67.50
52125;DHT22;38119;52.710;6.398;2023-06-24T10:13:05;29.10;67.30
52125;DHT22;38119;52.710;6.398;2023-06-24T10:15:32;29.20;67.30
52125;DHT22;38119;52.710;6.398;2023-06-24T10:20:56;29.20;66.80
52125;DHT22;38119;52.710;6.398;2023-06-24T10:23:21;29.20;65.60
52125;DHT22;38119;52.710;6.398;2023-06-24T10:25:48;29.20;66.50
52125;DHT22;38119;52.710;6.398;2023-06-24T10:28:13;29.30;66.40
52125;DHT22;38119;52.710;6.398;2023-06-24T10:30:39;29.40;66.50
52125;DHT22;38119;52.710;6.398;2023-06-24T10:33:09;29.50;66.70
52125;DHT22;38119;52.710;6.398;2023-06-24T10:35:41;29.50;66.00
52125;DHT22;38119;52.710;6.398;2023-06-24T10:38:10;29.50;67.30
52125;DHT22;38119;52.710;6.398;2023-06-24T10:40:37;29.60;67.80
52125;DHT22;38119;52.710;6.398;2023-06-24T10:45:50;29.80;66.40
52125;DHT22;38119;52.710;6.398;2023-06-24T10:48:16;29.90;66.40
52125;DHT22;38119;52.710;6.398;2023-06-24T10:50:45;30.00;65.10
52125;DHT22;38119;52.710;6.398;2023-06-24T10:53:12;29.90;64.00
52125;DHT22;38119;52.710;6.398;2023-06-24T10:55:39;29.90;64.80
52125;DHT22;38119;52.710;6.398;2023-06-24T10:58:12;29.90;64.20
52125;DHT22;38119;52.710;6.398;2023-06-24T11:00:39;30.20;63.70
52125;DHT22;38119;52.710;6.398;2023-06-24T11:03:14;30.40;63.20
52125;DHT22;38119;52.710;6.398;2023-06-24T11:05:41;30.30;62.00
52125;DHT22;38119;52.710;6.398;2023-06-24T11:08:08;30.10;61.90
52125;DHT22;38119;52.710;6.398;2023-06-24T11:10:47;30.00;61.70
52125;DHT22;38119;52.710;6.398;2023-06-24T11:13:14;30.10;64.00
52125;DHT22;38119;52.710;6.398;2023-06-24T11:15:40;30.10;65.80
52125;DHT22;38119;52.710;6.398;2023-06-24T11:18:10;30.30;65.10
52125;DHT22;38119;52.710;6.398;2023-06-24T11:20:39;30.50;63.60
52125;DHT22;38119;52.710;6.398;2023-06-24T11:23:09;30.50;61.50
52125;DHT22;38119;52.710;6.398;2023-06-24T11:25:42;30.60;61.50
52125;DHT22;38119;52.710;6.398;2023-06-24T11:31:30;30.70;62.80
52125;DHT22;38119;52.710;6.398;2023-06-24T11:33:58;30.80;62.40
52125;DHT22;38119;52.710;6.398;2023-06-24T11:36:24;31.10;63.00
52125;DHT22;38119;52.710;6.398;2023-06-24T11:39:21;31.50;62.70
52125;DHT22;38119;52.710;6.398;2023-06-24T11:41:47;31.80;61.60
52125;DHT22;38119;52.710;6.398;2023-06-24T11:44:13;31.80;61.20
52125;DHT22;38119;52.710;6.398;2023-06-24T11:46:40;31.70;60.80
52125;DHT22;38119;52.710;6.398;2023-06-24T11:49:07;31.60;59.60
52125;DHT22;38119;52.710;6.398;2023-06-24T11:51:33;31.40;59.80
52125;DHT22;38119;52.710;6.398;2023-06-24T11:54:01;31.40;60.00
52125;DHT22;38119;52.710;6.398;2023-06-24T11:56:39;31.30;59.40
52125;DHT22;38119;52.710;6.398;2023-06-24T11:59:26;31.00;59.30
52125;DHT22;38119;52.710;6.398;2023-06-24T12:02:01;30.50;60.10
52125;DHT22;38119;52.710;6.398;2023-06-24T12:04:30;30.30;61.90
52125;DHT22;38119;52.710;6.398;2023-06-24T12:06:57;30.30;62.00
52125;DHT22;38119;52.710;6.398;2023-06-24T12:09:22;30.30;61.30
52125;DHT22;38119;52.710;6.398;2023-06-24T12:11:48;30.40;61.50
52125;DHT22;38119;52.710;6.398;2023-06-24T12:14:14;30.50;60.80
52125;DHT22;38119;52.710;6.398;2023-06-24T12:16:40;30.60;60.60
52125;DHT22;38119;52.710;6.398;2023-06-24T12:19:06;30.40;60.40
52125;DHT22;38119;52.710;6.398;2023-06-24T12:21:33;30.10;61.20
52125;DHT22;38119;52.710;6.398;2023-06-24T12:23:59;29.80;61.40
52125;DHT22;38119;52.710;6.398;2023-06-24T12:26:24;29.70;63.00
52125;DHT22;38119;52.710;6.398;2023-06-24T12:28:50;29.80;64.70
52125;DHT22;38119;52.710;6.398;2023-06-24T12:31:15;29.90;62.40
52125;DHT22;38119;52.710;6.398;2023-06-24T12:33:41;30.10;62.80
52125;DHT22;38119;52.710;6.398;2023-06-24T12:36:07;30.20;63.40
52125;DHT22;38119;52.710;6.398;2023-06-24T12:38:32;30.40;62.70
52125;DHT22;38119;52.710;6.398;2023-06-24T12:40:58;30.70;63.30
52125;DHT22;38119;52.710;6.398;2023-06-24T12:43:24;30.80;61.50
52125;DHT22;38119;52.710;6.398;2023-06-24T12:45:49;30.80;61.60
52125;DHT22;38119;52.710;6.398;2023-06-24T12:48:16;30.60;61.80
52125;DHT22;38119;52.710;6.398;2023-06-24T12:50:42;30.60;62.60
52125;DHT22;38119;52.710;6.398;2023-06-24T12:53:08;30.80;62.50
52125;DHT22;38119;52.710;6.398;2023-06-24T12:55:36;31.00;61.60
52125;DHT22;38119;52.710;6.398;2023-06-24T12:58:02;31.10;62.60
52125;DHT22;38119;52.710;6.398;2023-06-24T13:00:28;31.20;63.00
52125;DHT22;38119;52.710;6.398;2023-06-24T13:02:53;31.40;61.80
52125;DHT22;38119;52.710;6.398;2023-06-24T13:05:19;31.60;61.20
52125;DHT22;38119;52.710;6.398;2023-06-24T13:07:45;31.70;60.60
52125;DHT22;38119;52.710;6.398;2023-06-24T13:10:11;31.70;60.40
52125;DHT22;38119;52.710;6.398;2023-06-24T13:12:37;31.60;60.50
52125;DHT22;38119;52.710;6.398;2023-06-24T13:15:04;31.40;60.50
52125;DHT22;38119;52.710;6.398;2023-06-24T13:17:30;31.30;60.60
52125;DHT22;38119;52.710;6.398;2023-06-24T13:19:56;31.20;59.80
52125;DHT22;38119;52.710;6.398;2023-06-24T13:22:23;31.10;60.50
52125;DHT22;38119;52.710;6.398;2023-06-24T13:24:48;31.10;60.40
52125;DHT22;38119;52.710;6.398;2023-06-24T13:27:14;31.20;60.30
52125;DHT22;38119;52.710;6.398;2023-06-24T13:29:39;31.20;60.00
52125;DHT22;38119;52.710;6.398;2023-06-24T13:32:05;31.20;60.30
52125;DHT22;38119;52.710;6.398;2023-06-24T13:34:31;31.30;59.50
52125;DHT22;38119;52.710;6.398;2023-06-24T13:36:57;31.30;59.50
52125;DHT22;38119;52.710;6.398;2023-06-24T13:39:23;31.30;59.60
52125;DHT22;38119;52.710;6.398;2023-06-24T13:41:49;31.30;59.50
52125;DHT22;38119;52.710;6.398;2023-06-24T13:44:16;31.50;59.90
52125;DHT22;38119;52.710;6.398;2023-06-24T13:46:42;31.60;59.70
52125;DHT22;38119;52.710;6.398;2023-06-24T13:49:08;31.70;58.60
52125;DHT22;38119;52.710;6.398;2023-06-24T13:51:34;31.70;58.80
52125;DHT22;38119;52.710;6.398;2023-06-24T13:53:59;31.60;58.90
52125;DHT22;38119;52.710;6.398;2023-06-24T13:56:26;31.60;58.70
52125;DHT22;38119;52.710;6.398;2023-06-24T13:58:53;31.50;59.20
52125;DHT22;38119;52.710;6.398;2023-06-24T14:01:19;31.60;59.20
52125;DHT22;38119;52.710;6.398;2023-06-24T14:03:45;31.70;58.90
52125;DHT22;38119;52.710;6.398;2023-06-24T14:06:12;31.70;57.90
52125;DHT22;38119;52.710;6.398;2023-06-24T14:08:39;31.70;57.30
52125;DHT22;38119;52.710;6.398;2023-06-24T14:11:04;31.60;58.50
52125;DHT22;38119;52.710;6.398;2023-06-24T14:13:30;31.40;57.60
52125;DHT22;38119;52.710;6.398;2023-06-24T14:15:57;31.20;58.40
52125;DHT22;38119;52.710;6.398;2023-06-24T14:18:23;30.90;58.80
52125;DHT22;38119;52.710;6.398;2023-06-24T14:20:49;30.90;60.00
52125;DHT22;38119;52.710;6.398;2023-06-24T14:23:15;31.00;59.50
52125;DHT22;38119;52.710;6.398;2023-06-24T14:25:40;31.10;59.00
52125;DHT22;38119;52.710;6.398;2023-06-24T14:28:06;31.10;58.30
52125;DHT22;38119;52.710;6.398;2023-06-24T14:30:33;31.20;58.00
52125;DHT22;38119;52.710;6.398;2023-06-24T14:32:59;31.10;58.70
52125;DHT22;38119;52.710;6.398;2023-06-24T14:35:25;31.20;58.40
52125;DHT22;38119;52.710;6.398;2023-06-24T14:37:51;31.30;57.90
52125;DHT22;38119;52.710;6.398;2023-06-24T14:40:17;31.20;57.80
52125;DHT22;38119;52.710;6.398;2023-06-24T14:42:42;31.00;57.30
52125;DHT22;38119;52.710;6.398;2023-06-24T14:45:08;30.70;58.30
52125;DHT22;38119;52.710;6.398;2023-06-24T14:47:34;30.60;58.70
52125;DHT22;38119;52.710;6.398;2023-06-24T14:50:00;30.40;58.70
52125;DHT22;38119;52.710;6.398;2023-06-24T14:52:26;30.30;58.50
52125;DHT22;38119;52.710;6.398;2023-06-24T14:54:51;30.20;59.50
52125;DHT22;38119;52.710;6.398;2023-06-24T14:57:17;30.10;60.50
52125;DHT22;38119;52.710;6.398;2023-06-24T14:59:43;30.10;60.80
52125;DHT22;38119;52.710;6.398;2023-06-24T15:02:08;30.10;59.10
52125;DHT22;38119;52.710;6.398;2023-06-24T15:04:35;30.00;59.00
52125;DHT22;38119;52.710;6.398;2023-06-24T15:07:02;30.00;58.90
52125;DHT22;38119;52.710;6.398;2023-06-24T15:09:28;30.00;59.00
52125;DHT22;38119;52.710;6.398;2023-06-24T15:11:53;30.10;59.00
52125;DHT22;38119;52.710;6.398;2023-06-24T15:14:19;30.30;58.50
52125;DHT22;38119;52.710;6.398;2023-06-24T15:16:44;30.30;58.70
52125;DHT22;38119;52.710;6.398;2023-06-24T15:19:10;30.40;59.20
52125;DHT22;38119;52.710;6.398;2023-06-24T15:21:36;30.50;57.40
52125;DHT22;38119;52.710;6.398;2023-06-24T15:24:01;30.60;58.10
52125;DHT22;38119;52.710;6.398;2023-06-24T15:26:27;30.60;58.60
52125;DHT22;38119;52.710;6.398;2023-06-24T15:28:53;30.70;59.00
52125;DHT22;38119;52.710;6.398;2023-06-24T15:31:19;30.90;59.20
52125;DHT22;38119;52.710;6.398;2023-06-24T15:33:45;30.80;58.90
52125;DHT22;38119;52.710;6.398;2023-06-24T15:36:10;30.90;59.40
52125;DHT22;38119;52.710;6.398;2023-06-24T15:38:36;30.90;59.80
52125;DHT22;38119;52.710;6.398;2023-06-24T15:41:02;30.90;60.70
52125;DHT22;38119;52.710;6.398;2023-06-24T15:43:28;30.90;60.40
52125;DHT22;38119;52.710;6.398;2023-06-24T15:45:53;30.90;60.30
52125;DHT22;38119;52.710;6.398;2023-06-24T15:48:19;30.80;60.80
52125;DHT22;38119;52.710;6.398;2023-06-24T15:50:44;30.80;61.40
52125;DHT22;38119;52.710;6.398;2023-06-24T15:53:10;30.70;62.50
52125;DHT22;38119;52.710;6.398;2023-06-24T15:55:36;30.60;63.00
52125;DHT22;38119;52.710;6.398;2023-06-24T15:58:01;30.60;62.80
52125;DHT22;38119;52.710;6.398;2023-06-24T16:00:27;30.60;62.30